This is the latest recevied weather packets stored in our database for station/object SP6KBU-12. If no packets are shown the sender has not sent any weather packets the latest 10 day(s).
| Time | Temp. | Humidity | Pressure | Rain* | Wind** | Luminosity | Snow |
|---|---|---|---|---|---|---|---|
| 1777765566 | 15° C | 34% | 1019.4 hPa | - | - | - | - |
| 1777764665 | 15° C | 34% | 1019.6 hPa | - | - | - | - |
| 1777763764 | 15° C | 35% | 1019.6 hPa | - | - | - | - |
| 1777762863 | 14.44° C | 36% | 1019.9 hPa | - | - | - | - |
| 1777761962 | 13.33° C | 38% | 1020 hPa | - | - | - | - |
| 1777761061 | 12.78° C | 39% | 1020.1 hPa | - | - | - | - |
| 1777760160 | 13.89° C | 36% | 1020.1 hPa | - | - | - | - |
| 1777759258 | 14.44° C | 35% | 1020.2 hPa | - | - | - | - |
| 1777758359 | 14.44° C | 35% | 1020.3 hPa | - | - | - | - |
| 1777757457 | 15° C | 35% | 1020.2 hPa | - | - | - | - |
| 1777756556 | 15° C | 34% | 1020.4 hPa | - | - | - | - |
| 1777755655 | 15.56° C | 34% | 1020.4 hPa | - | - | - | - |
| 1777754754 | 15.56° C | 33% | 1020.4 hPa | - | - | - | - |
| 1777753853 | 15.56° C | 33% | 1020.5 hPa | - | - | - | - |
| 1777752952 | 15.56° C | 33% | 1020.5 hPa | - | - | - | - |
| 1777752051 | 15.56° C | 32% | 1020.6 hPa | - | - | - | - |
| 1777751150 | 16.11° C | 31% | 1020.8 hPa | - | - | - | - |
| 1777750250 | 16.67° C | 29% | 1020.8 hPa | - | - | - | - |
| 1777749349 | 16.67° C | 28% | 1020.9 hPa | - | - | - | - |
| 1777748450 | 17.22° C | 27% | 1020.8 hPa | - | - | - | - |
| 1777747550 | 17.78° C | 26% | 1020.9 hPa | - | - | - | - |
| 1777746650 | 17.78° C | 26% | 1020.7 hPa | - | - | - | - |
| 1777745751 | 18.89° C | 24% | 1020.8 hPa | - | - | - | - |
| 1777744851 | 20° C | 22% | 1020.7 hPa | - | - | - | - |
| 1777743951 | 22.22° C | 21% | 1020.7 hPa | - | - | - | - |
* Rain since midnight (hover to see other rain measurements)
** Current wind speed in m/s (hover to see current wind gust speed)